createdAt,value
2022-09-22T04:00:32.259Z,4.80
2022-09-22T04:11:37.111Z,4.00
2022-09-22T04:22:36.984Z,4.70
2022-09-22T04:33:36.853Z,4.70
2022-09-22T04:44:36.791Z,4.40
2022-09-22T04:55:36.608Z,4.40
2022-09-22T05:06:36.486Z,5.00
2022-09-22T05:17:36.349Z,3.60
2022-09-22T05:28:36.228Z,4.90
2022-09-22T05:39:36.109Z,4.60
2022-09-22T05:50:36.367Z,4.90
2022-09-22T06:01:35.851Z,5.40
2022-09-22T06:12:35.728Z,5.40
2022-09-22T06:23:39.364Z,5.10
2022-09-22T06:34:35.484Z,5.00
2022-09-22T06:45:35.508Z,6.40
2022-09-22T06:56:37.004Z,6.10
2022-09-22T07:07:35.111Z,5.10
2022-09-22T07:18:34.983Z,5.80
2022-09-22T07:29:34.861Z,4.80
2022-09-22T07:40:34.777Z,4.90
2022-09-22T07:51:34.634Z,5.20
2022-09-22T08:02:34.538Z,4.50
2022-09-22T08:13:34.376Z,5.00
2022-09-22T08:24:34.234Z,5.50
2022-09-22T08:35:34.139Z,4.90
2022-09-22T08:46:34.351Z,5.50
2022-09-22T08:57:33.869Z,4.10
2022-09-22T09:08:33.747Z,4.50
2022-09-22T09:19:33.617Z,2.90
2022-09-22T09:30:33.522Z,1.90
2022-09-22T09:41:33.395Z,2.50
2022-09-22T09:52:33.253Z,2.60
2022-09-22T10:03:33.152Z,2.60
2022-09-22T10:14:32.991Z,2.20
2022-09-22T10:25:32.863Z,2.20
2022-09-22T10:36:32.764Z,2.00
2022-09-22T10:47:32.615Z,1.50
2022-09-22T10:58:32.492Z,2.00
2022-09-22T11:09:32.502Z,1.50
2022-09-22T11:20:32.275Z,1.80
2022-09-22T11:31:32.192Z,1.20
2022-09-22T11:42:32.010Z,1.40
2022-09-22T11:53:31.876Z,1.00
2022-09-22T12:04:31.754Z,1.90
2022-09-22T12:15:31.615Z,1.10
2022-09-22T12:26:32.525Z,0.70
2022-09-22T12:37:31.369Z,1.30
2022-09-22T12:48:31.266Z,1.20
2022-09-22T12:59:31.134Z,1.50
2022-09-22T13:10:30.997Z,1.30
2022-09-22T13:21:30.880Z,1.00
2022-09-22T13:32:30.763Z,1.30
2022-09-22T13:43:30.682Z,1.30
2022-09-22T13:54:31.171Z,1.40
2022-09-22T14:05:30.433Z,1.00
2022-09-22T14:16:30.343Z,0.80
2022-09-22T14:27:30.165Z,1.50
2022-09-22T14:38:30.022Z,1.30
2022-09-22T14:49:29.899Z,1.30
2022-09-22T15:00:29.742Z,1.50
2022-09-22T15:11:29.457Z,1.30
2022-09-22T15:22:29.300Z,1.10
2022-09-22T15:33:29.485Z,1.40
2022-09-22T15:44:29.260Z,1.30
2022-09-22T15:55:29.162Z,1.40
2022-09-22T16:06:29.003Z,1.10
2022-09-22T16:17:28.879Z,1.30
2022-09-22T16:28:28.754Z,1.60
2022-09-22T16:39:28.708Z,0.90
2022-09-22T16:50:28.567Z,1.10
2022-09-22T17:01:28.386Z,1.00
2022-09-22T17:12:28.265Z,1.60
2022-09-22T17:23:28.141Z,2.20
2022-09-22T17:34:28.010Z,1.50
2022-09-22T17:45:27.896Z,2.30
2022-09-22T17:56:27.755Z,1.10
2022-09-22T18:07:27.635Z,1.50
2022-09-22T18:18:27.515Z,2.50
2022-09-22T18:29:27.374Z,1.60
2022-09-22T18:40:27.294Z,1.90
2022-09-22T18:51:27.119Z,2.10
2022-09-22T19:02:27.124Z,3.00
2022-09-22T19:13:26.870Z,2.80
2022-09-22T19:24:26.771Z,3.70
2022-09-22T19:35:26.612Z,1.90
2022-09-22T19:46:26.538Z,2.80
2022-09-22T19:57:26.359Z,3.20
2022-09-22T20:08:26.240Z,2.50
2022-09-22T20:19:26.110Z,2.60
2022-09-22T20:30:25.993Z,2.20
2022-09-22T20:41:25.892Z,3.00
2022-09-22T20:52:25.745Z,2.10
